createdAt,value
2022-09-28T00:00:53.085Z,15.47
2022-09-28T00:03:33.168Z,15.42
2022-09-28T00:06:24.046Z,15.39
2022-09-28T00:09:05.173Z,15.41
2022-09-28T00:11:53.061Z,15.36
2022-09-28T00:14:33.203Z,15.30
2022-09-28T00:17:21.089Z,15.30
2022-09-28T00:20:05.298Z,15.37
2022-09-28T00:22:52.065Z,15.24
2022-09-28T00:25:39.025Z,15.20
2022-09-28T00:28:26.152Z,15.11
2022-09-28T00:31:07.065Z,15.19
2022-09-28T00:33:51.929Z,15.09
2022-09-28T00:36:40.056Z,15.08
2022-09-28T00:39:27.036Z,15.11
2022-09-28T00:42:07.166Z,15.05
2022-09-28T00:44:58.017Z,15.07
2022-09-28T00:47:56.006Z,15.12
2022-09-28T00:50:38.679Z,15.13
2022-09-28T00:53:32.045Z,15.09
2022-09-28T00:56:19.054Z,15.10
2022-09-28T00:59:06.992Z,15.05
2022-09-28T01:01:53.989Z,15.02
2022-09-28T01:04:42.027Z,14.99
2022-09-28T01:07:22.900Z,14.97
2022-09-28T01:10:10.018Z,14.96
2022-09-28T01:12:56.966Z,14.97
2022-09-28T01:15:49.985Z,14.95
2022-09-28T01:19:08.083Z,14.93
2022-09-28T01:22:43.005Z,14.91
2022-09-28T01:25:35.963Z,14.86
2022-09-28T01:28:32.988Z,14.85
2022-09-28T01:31:22.987Z,14.79
2022-09-28T01:34:31.042Z,14.77
2022-09-28T01:37:21.954Z,14.76
2022-09-28T01:40:05.103Z,14.74
2022-09-28T01:42:54.972Z,14.74
2022-09-28T01:45:47.979Z,14.73
2022-09-28T01:48:46.958Z,14.67
2022-09-28T01:51:57.937Z,14.68
2022-09-28T01:55:09.479Z,14.66
2022-09-28T01:58:01.912Z,14.61
2022-09-28T02:00:47.079Z,14.55
2022-09-28T02:03:42.941Z,14.57
2022-09-28T02:06:31.994Z,14.54
2022-09-28T02:09:29.465Z,14.54
2022-09-28T02:12:31.904Z,14.48
2022-09-28T02:15:23.989Z,14.46
2022-09-28T02:18:12.951Z,14.45
2022-09-28T02:21:05.983Z,14.46
2022-09-28T02:24:07.916Z,14.49
2022-09-28T02:27:03.919Z,14.51
2022-09-28T02:29:50.921Z,14.51
2022-09-28T02:32:32.988Z,14.51
2022-09-28T02:35:22.926Z,14.50
2022-09-28T02:38:04.053Z,14.51
2022-09-28T02:41:02.944Z,14.53
2022-09-28T02:44:16.950Z,14.59
2022-09-28T02:47:20.862Z,14.55
2022-09-28T02:50:08.884Z,14.56
2022-09-28T02:53:04.859Z,14.49
2022-09-28T02:56:03.875Z,14.44
2022-09-28T02:58:48.026Z,14.44
2022-09-28T03:02:02.947Z,14.43
2022-09-28T03:04:57.857Z,14.37
2022-09-28T03:26:01.795Z,13.67
2022-09-28T03:28:42.295Z,13.75
2022-09-28T03:31:34.834Z,13.88
2022-09-28T03:34:21.799Z,13.99
2022-09-28T03:37:08.841Z,14.06
2022-09-28T03:39:55.804Z,14.12
2022-09-28T03:42:37.811Z,14.13
2022-09-28T03:45:24.871Z,14.20
2022-09-28T03:48:04.982Z,14.24
2022-09-28T03:50:51.785Z,14.30
2022-09-28T03:53:39.810Z,14.27
2022-09-28T03:56:20.224Z,14.27
2022-09-28T03:59:06.812Z,14.28
2022-09-28T04:01:56.796Z,14.27
2022-09-28T04:04:37.883Z,14.25
2022-09-28T04:07:28.975Z,14.26
2022-09-28T04:10:10.999Z,14.31
2022-09-28T04:13:01.766Z,14.38
2022-09-28T04:15:41.960Z,14.42
2022-09-28T04:18:29.772Z,14.44
2022-09-28T04:21:28.856Z,14.53
2022-09-28T04:24:24.751Z,14.76
2022-09-28T04:27:23.820Z,15.17
2022-09-28T04:30:10.750Z,15.57
2022-09-28T04:32:54.846Z,15.96
2022-09-28T04:35:43.775Z,16.47
2022-09-28T04:38:48.369Z,17.05
2022-09-28T04:41:30.745Z,17.39
2022-09-28T04:44:17.688Z,17.72
2022-09-28T04:47:10.713Z,17.98
2022-09-28T04:50:25.717Z,17.72
2022-09-28T04:53:34.727Z,17.10
2022-09-28T04:56:18.833Z,17.14
2022-09-28T04:59:05.716Z,17.19
2022-09-28T05:01:47.600Z,17.13
2022-09-28T05:04:34.696Z,17.53
2022-09-28T05:07:49.737Z,18.28
2022-09-28T05:10:30.052Z,18.56
2022-09-28T05:13:16.735Z,18.72
2022-09-28T05:16:05.854Z,18.72
2022-09-28T05:19:03.708Z,18.55
2022-09-28T05:21:48.827Z,18.89
2022-09-28T05:24:35.692Z,18.86
2022-09-28T05:27:22.685Z,18.31
2022-09-28T05:30:12.701Z,18.55
2022-09-28T05:33:28.677Z,19.14
2022-09-28T05:36:20.105Z,18.89
2022-09-28T05:39:06.689Z,18.93
2022-09-28T05:41:47.043Z,18.90
2022-09-28T05:44:34.858Z,19.95
2022-09-28T05:47:15.040Z,21.67
2022-09-28T05:50:01.679Z,21.90
2022-09-28T05:52:43.345Z,23.31
2022-09-28T05:55:29.651Z,24.55
2022-09-28T05:58:10.081Z,25.53
2022-09-28T06:00:57.700Z,24.21
2022-09-28T06:03:38.057Z,22.61
2022-09-28T06:06:24.683Z,22.29
2022-09-28T06:09:05.056Z,22.22
2022-09-28T06:12:12.840Z,22.47
2022-09-28T06:15:07.638Z,25.71
2022-09-28T06:17:54.632Z,27.49
2022-09-28T06:21:07.663Z,28.00
2022-09-28T06:23:50.733Z,29.46
2022-09-28T06:26:37.640Z,28.48
2022-09-28T06:29:19.762Z,29.46
2022-09-28T06:32:06.658Z,29.99
2022-09-28T06:34:50.732Z,30.27
2022-09-28T06:37:40.637Z,30.36
2022-09-28T06:40:20.888Z,30.07
2022-09-28T06:43:21.600Z,31.14
2022-09-28T06:46:21.344Z,29.65
2022-09-28T06:49:26.657Z,29.21
2022-09-28T06:52:31.610Z,31.91
2022-09-28T06:55:19.459Z,32.08
2022-09-28T06:58:14.611Z,33.11
2022-09-28T07:01:00.488Z,31.57
2022-09-28T07:03:55.945Z,33.54
2022-09-28T07:06:54.394Z,33.73
2022-09-28T07:10:07.595Z,35.01
2022-09-28T07:13:11.969Z,34.62
2022-09-28T07:16:08.636Z,35.77
2022-09-28T07:18:55.580Z,35.00
2022-09-28T07:21:36.776Z,35.76
2022-09-28T07:24:23.809Z,34.20
2022-09-28T07:27:28.767Z,34.39
2022-09-28T07:30:27.942Z,35.13
2022-09-28T07:33:30.343Z,33.46
2022-09-28T07:36:29.781Z,33.67
2022-09-28T07:39:09.662Z,35.68
2022-09-28T07:41:59.701Z,36.62
2022-09-28T07:44:50.562Z,37.56
2022-09-28T07:47:38.507Z,36.38
2022-09-28T07:50:26.673Z,36.63
2022-09-28T07:53:29.540Z,36.49
2022-09-28T07:56:38.681Z,34.54
2022-09-28T07:59:50.537Z,37.06
2022-09-28T08:02:48.666Z,38.93
2022-09-28T08:05:42.536Z,37.71
2022-09-28T08:08:29.541Z,38.23
2022-09-28T08:11:13.532Z,38.93
2022-09-28T08:14:18.654Z,38.21
2022-09-28T08:17:07.261Z,35.70
2022-09-28T08:20:21.795Z,35.87
2022-09-28T08:23:13.537Z,36.69
2022-09-28T08:26:00.620Z,37.83
2022-09-28T08:28:42.536Z,38.75
2022-09-28T08:32:01.364Z,38.08
2022-09-28T08:34:53.551Z,38.76
2022-09-28T08:37:58.127Z,38.49
2022-09-28T08:41:26.508Z,37.90
2022-09-28T08:44:30.580Z,37.67
2022-09-28T08:48:15.972Z,37.94
2022-09-28T08:51:29.501Z,40.40
2022-09-28T08:54:58.592Z,39.32
2022-09-28T08:57:54.522Z,39.53
2022-09-28T09:00:44.608Z,40.07
2022-09-28T09:03:46.464Z,38.91
2022-09-28T09:07:13.576Z,39.37
2022-09-28T09:10:22.476Z,40.07
2022-09-28T09:13:06.554Z,40.96
2022-09-28T09:16:30.566Z,39.66
2022-09-28T09:19:49.601Z,43.57
2022-09-28T09:23:12.457Z,42.72
2022-09-28T09:26:13.643Z,40.64
2022-09-28T09:29:22.315Z,39.74
2022-09-28T09:32:33.444Z,42.32
2022-09-28T09:35:26.889Z,42.94
2022-09-28T09:38:48.476Z,41.15
2022-09-28T09:42:43.461Z,40.93
2022-09-28T09:46:06.888Z,41.86
2022-09-28T09:49:41.479Z,44.75
2022-09-28T09:52:36.995Z,42.97
2022-09-28T09:55:34.540Z,42.78
2022-09-28T09:58:54.452Z,42.39
2022-09-28T10:01:48.508Z,42.82
2022-09-28T10:04:47.577Z,42.49
2022-09-28T10:07:54.452Z,41.92
2022-09-28T10:10:42.570Z,42.06
2022-09-28T10:13:31.447Z,41.74
2022-09-28T10:16:32.488Z,42.95
2022-09-28T10:19:28.456Z,42.06
2022-09-28T10:22:40.420Z,40.91
2022-09-28T10:25:38.420Z,43.66
2022-09-28T10:28:36.483Z,41.96
2022-09-28T10:31:49.449Z,40.10
2022-09-28T10:34:38.430Z,40.76
2022-09-28T10:37:24.563Z,40.56
2022-09-28T10:40:50.558Z,41.57
2022-09-28T10:44:12.431Z,41.44
2022-09-28T10:47:16.416Z,41.00
2022-09-28T10:49:58.574Z,40.34
2022-09-28T10:52:52.446Z,40.46
2022-09-28T10:56:05.477Z,41.37
2022-09-28T10:58:52.372Z,40.78
2022-09-28T11:01:54.391Z,39.29
2022-09-28T11:04:47.397Z,39.06
2022-09-28T11:07:33.371Z,40.09
2022-09-28T11:10:28.395Z,39.96
2022-09-28T11:13:18.486Z,41.97
2022-09-28T11:16:15.411Z,38.56
2022-09-28T11:18:55.502Z,40.64
2022-09-28T11:21:50.374Z,41.33
2022-09-28T11:24:39.463Z,42.54
2022-09-28T11:27:34.368Z,40.78
2022-09-28T11:30:29.536Z,38.96
2022-09-28T11:33:55.342Z,39.03
2022-09-28T11:37:38.353Z,38.34
2022-09-28T11:41:10.338Z,35.67
2022-09-28T11:44:33.366Z,35.90
2022-09-28T11:48:02.345Z,38.65
2022-09-28T11:50:53.434Z,37.38
2022-09-28T11:53:50.345Z,35.46
2022-09-28T11:56:52.354Z,33.41
2022-09-28T11:59:35.664Z,31.67
2022-09-28T12:02:26.386Z,29.98
2022-09-28T12:05:32.426Z,29.34
2022-09-28T12:08:25.326Z,28.68
2022-09-28T12:11:41.358Z,28.30
2022-09-28T12:14:36.575Z,28.13
2022-09-28T12:17:35.478Z,27.84
2022-09-28T12:20:31.339Z,27.29
2022-09-28T12:23:25.892Z,27.16
2022-09-28T12:26:27.289Z,26.95
2022-09-28T12:29:11.487Z,26.27
2022-09-28T12:32:05.302Z,25.79
2022-09-28T12:34:48.372Z,25.30
2022-09-28T12:38:00.323Z,24.89
2022-09-28T12:41:26.268Z,24.28
2022-09-28T12:44:36.312Z,23.77
2022-09-28T12:47:43.274Z,23.39
2022-09-28T12:50:39.066Z,23.16
2022-09-28T12:53:37.261Z,22.91
2022-09-28T12:56:50.290Z,22.91
2022-09-28T12:59:46.827Z,22.64
2022-09-28T13:02:45.301Z,22.65
2022-09-28T13:06:25.266Z,22.77
2022-09-28T13:09:17.232Z,22.71
2022-09-28T13:12:23.245Z,22.50
2022-09-28T13:15:41.344Z,22.58
2022-09-28T13:18:51.270Z,22.36
2022-09-28T13:22:01.270Z,22.24
2022-09-28T13:24:53.249Z,22.35
2022-09-28T13:27:47.277Z,22.31
2022-09-28T13:30:27.708Z,22.23
2022-09-28T13:33:17.209Z,21.89
2022-09-28T13:35:57.358Z,21.84
2022-09-28T13:38:54.193Z,21.85
2022-09-28T13:41:55.983Z,21.79
2022-09-28T13:45:13.207Z,21.78
2022-09-28T13:48:18.650Z,21.38
2022-09-28T13:51:29.214Z,21.24
2022-09-28T13:54:23.379Z,21.21
2022-09-28T13:57:53.196Z,21.12
2022-09-28T14:00:38.364Z,21.13
2022-09-28T14:03:49.183Z,21.12
2022-09-28T14:06:49.439Z,21.06
2022-09-28T14:09:56.189Z,20.94
2022-09-28T14:12:51.600Z,20.95
2022-09-28T14:15:44.227Z,20.90
2022-09-28T14:18:38.294Z,20.92
2022-09-28T14:22:02.183Z,20.94
2022-09-28T14:24:54.182Z,20.89
2022-09-28T14:27:37.794Z,20.85
2022-09-28T14:30:27.174Z,20.80
2022-09-28T14:33:19.379Z,20.82
2022-09-28T14:36:20.138Z,20.78
2022-09-28T14:39:19.432Z,20.85
2022-09-28T14:42:06.171Z,20.90
2022-09-28T14:45:05.394Z,20.90
2022-09-28T14:47:55.152Z,20.92
2022-09-28T14:50:42.114Z,20.93
2022-09-28T14:53:31.245Z,20.99
2022-09-28T14:56:21.114Z,20.97
2022-09-28T14:59:04.250Z,20.89
2022-09-28T15:02:15.159Z,20.90
2022-09-28T15:05:16.267Z,20.87
2022-09-28T15:08:04.140Z,20.87
2022-09-28T15:10:47.254Z,20.88
2022-09-28T15:27:56.740Z,19.99
2022-09-28T15:30:37.468Z,20.11
2022-09-28T15:34:12.751Z,20.17
2022-09-28T15:37:02.726Z,20.17
2022-09-28T15:39:42.828Z,20.20
2022-09-28T15:42:29.751Z,20.24
2022-09-28T15:45:18.710Z,20.25
2022-09-28T15:48:24.951Z,20.20
2022-09-28T15:51:21.722Z,20.11
2022-09-28T15:54:04.617Z,20.08
2022-09-28T15:57:11.716Z,20.08
2022-09-28T15:59:59.267Z,20.05
2022-09-28T16:02:52.726Z,20.06
2022-09-28T16:05:57.673Z,19.97
2022-09-28T16:08:44.705Z,19.92
2022-09-28T16:11:44.689Z,19.91
2022-09-28T16:14:27.798Z,19.96
2022-09-28T16:17:24.703Z,19.89
2022-09-28T16:20:07.763Z,19.83
2022-09-28T16:22:55.688Z,19.87
2022-09-28T16:25:43.691Z,19.76
2022-09-28T16:28:29.536Z,19.73
2022-09-28T16:31:26.689Z,19.71
2022-09-28T16:34:13.613Z,19.66
2022-09-28T16:37:02.657Z,19.61
2022-09-28T16:39:43.027Z,19.59
2022-09-28T16:42:29.658Z,19.63
2022-09-28T16:45:18.458Z,19.61
2022-09-28T16:48:08.669Z,19.59
2022-09-28T16:50:49.040Z,19.65
2022-09-28T16:53:53.650Z,19.60
2022-09-28T16:56:36.359Z,19.64
2022-09-28T16:59:23.614Z,19.67
2022-09-28T17:02:47.304Z,19.63
2022-09-28T17:05:27.713Z,19.66
2022-09-28T17:08:19.598Z,19.64
2022-09-28T17:11:18.151Z,19.62
2022-09-28T17:14:03.095Z,19.60
2022-09-28T17:17:07.367Z,19.54
2022-09-28T17:19:56.613Z,19.54
2022-09-28T17:22:43.633Z,19.55
2022-09-28T17:25:39.575Z,19.53
2022-09-28T17:28:38.615Z,19.53
2022-09-28T17:31:22.887Z,19.46
2022-09-28T17:34:09.622Z,19.48
2022-09-28T17:36:57.619Z,19.41
2022-09-28T17:39:37.977Z,19.53
2022-09-28T17:42:17.589Z,19.51
2022-09-28T17:45:04.597Z,19.54
2022-09-28T17:47:45.055Z,19.53
2022-09-28T17:50:33.607Z,19.55
2022-09-28T17:53:14.555Z,19.55
2022-09-28T17:56:01.578Z,19.47
2022-09-28T17:58:41.985Z,19.38
2022-09-28T18:01:28.617Z,19.32
2022-09-28T18:04:46.940Z,19.33
2022-09-28T18:07:18.658Z,19.35
2022-09-28T18:10:05.586Z,19.45
2022-09-28T18:12:45.721Z,19.32
2022-09-28T18:15:32.610Z,19.30
2022-09-28T18:18:19.552Z,19.30
2022-09-28T18:21:01.024Z,19.35
2022-09-28T18:23:51.556Z,19.32
2022-09-28T18:26:38.524Z,19.33
2022-09-28T18:29:18.666Z,19.31
2022-09-28T18:32:05.572Z,19.22
2022-09-28T18:34:45.805Z,19.17
2022-09-28T18:37:32.517Z,19.07
2022-09-28T18:40:14.718Z,19.10
2022-09-28T18:43:01.513Z,19.04
2022-09-28T18:45:42.620Z,18.95
2022-09-28T18:48:31.505Z,18.94
2022-09-28T18:51:15.662Z,19.00
2022-09-28T18:54:02.528Z,19.01
2022-09-28T18:56:49.553Z,18.96
2022-09-28T18:59:36.715Z,18.98
2022-09-28T19:02:19.632Z,18.96
2022-09-28T19:04:59.884Z,18.92
2022-09-28T19:07:47.509Z,18.92
2022-09-28T19:10:27.978Z,18.91
2022-09-28T19:13:14.495Z,18.82
2022-09-28T19:16:01.536Z,18.89
2022-09-28T19:18:43.814Z,18.88
2022-09-28T19:21:31.475Z,18.87
2022-09-28T19:24:18.517Z,18.87
2022-09-28T19:27:05.658Z,18.88
2022-09-28T19:30:08.495Z,18.88
2022-09-28T19:32:52.754Z,18.85
2022-09-28T19:37:08.096Z,18.85
2022-09-28T19:40:26.312Z,18.78
2022-09-28T19:43:27.475Z,18.84
2022-09-28T19:46:16.507Z,18.91
2022-09-28T19:49:03.469Z,18.82
2022-09-28T19:52:01.926Z,18.83
2022-09-28T19:54:51.463Z,18.83
2022-09-28T19:57:32.690Z,18.87
2022-09-28T20:00:20.452Z,18.92
2022-09-28T20:03:00.961Z,18.93
2022-09-28T20:05:48.455Z,18.88
2022-09-28T20:08:32.248Z,18.73
2022-09-28T20:11:19.470Z,18.67
2022-09-28T20:14:00.282Z,18.69
2022-09-28T20:16:49.534Z,18.71
2022-09-28T20:19:36.408Z,18.77
2022-09-28T20:22:25.502Z,18.68
2022-09-28T20:25:06.338Z,18.61
2022-09-28T20:27:53.405Z,18.64
2022-09-28T20:30:33.785Z,18.76
2022-09-28T20:33:28.700Z,18.69
2022-09-28T20:36:11.779Z,18.75
2022-09-28T20:39:01.389Z,18.80
2022-09-28T20:41:48.429Z,18.76
2022-09-28T20:44:28.527Z,18.77
2022-09-28T20:47:15.366Z,18.70
2022-09-28T20:50:02.408Z,18.75
2022-09-28T20:52:42.772Z,18.70
2022-09-28T20:55:29.375Z,18.74
2022-09-28T20:58:09.769Z,18.68
2022-09-28T21:00:56.337Z,18.61
2022-09-28T21:03:38.191Z,18.62
2022-09-28T21:06:25.356Z,18.53
2022-09-28T21:09:13.355Z,18.61
2022-09-28T21:11:53.473Z,18.51
2022-09-28T21:14:33.373Z,18.37
2022-09-28T21:17:13.774Z,18.37
2022-09-28T21:20:00.375Z,18.31
2022-09-28T21:22:40.734Z,18.34
2022-09-28T21:25:27.353Z,18.31
2022-09-28T21:28:21.374Z,18.31
2022-09-28T21:31:04.596Z,18.33
2022-09-28T21:33:51.357Z,18.26
2022-09-28T21:36:38.362Z,18.31
2022-09-28T21:39:25.349Z,18.33
2022-09-28T21:42:05.898Z,18.28
2022-09-28T21:44:55.291Z,18.28
2022-09-28T21:47:37.811Z,18.29
2022-09-28T21:50:24.312Z,18.12
2022-09-28T21:53:04.677Z,18.11
2022-09-28T21:55:52.331Z,18.00
2022-09-28T21:58:35.418Z,18.03
2022-09-28T22:01:49.377Z,18.09
2022-09-28T22:04:29.683Z,18.03
2022-09-28T22:07:16.319Z,18.06
2022-09-28T22:10:03.305Z,18.17
2022-09-28T22:12:43.490Z,18.21
2022-09-28T22:15:30.311Z,18.19
2022-09-28T22:18:17.319Z,18.28
2022-09-28T22:21:02.901Z,18.30
2022-09-28T22:23:50.300Z,18.13
2022-09-28T22:26:38.296Z,18.01
2022-09-28T22:29:18.375Z,17.94
2022-09-28T22:32:08.251Z,17.94
2022-09-28T22:34:48.386Z,17.85
2022-09-28T22:37:35.278Z,17.94
2022-09-28T22:40:16.638Z,17.90
2022-09-28T22:43:03.269Z,17.84
2022-09-28T22:45:50.302Z,17.70
2022-09-28T22:48:37.275Z,17.70
2022-09-28T22:51:17.379Z,17.62
2022-09-28T22:54:04.296Z,17.61
2022-09-28T22:56:44.349Z,17.63
2022-09-28T22:59:31.282Z,17.57
2022-09-28T23:02:11.356Z,17.51
2022-09-28T23:05:05.280Z,17.59
2022-09-28T23:07:53.504Z,17.57
2022-09-28T23:10:40.231Z,17.58
2022-09-28T23:13:21.324Z,17.65
2022-09-28T23:16:11.240Z,17.78
2022-09-28T23:18:58.251Z,17.85
2022-09-28T23:21:38.576Z,17.75
2022-09-28T23:24:25.272Z,17.68
2022-09-28T23:27:19.204Z,17.67
2022-09-28T23:30:06.180Z,17.64
2022-09-28T23:32:46.578Z,17.61
2022-09-28T23:35:33.172Z,17.51
2022-09-28T23:38:18.004Z,17.48
2022-09-28T23:41:05.212Z,17.37
2022-09-28T23:43:45.276Z,17.34
2022-09-28T23:46:32.261Z,17.21
2022-09-28T23:49:12.555Z,17.16
2022-09-28T23:51:59.198Z,17.16
2022-09-28T23:54:39.813Z,17.11
2022-09-28T23:57:26.216Z,17.05
